createdAt,value
2022-07-29T00:00:17.905Z,70.50
2022-07-29T00:06:59.965Z,70.65
2022-07-29T00:17:20.893Z,70.86
2022-07-29T00:20:43.948Z,70.37
2022-07-29T00:23:56.103Z,70.05
2022-07-29T00:27:08.976Z,69.95
2022-07-29T00:30:22.873Z,70.05
2022-07-29T00:33:34.926Z,70.66
2022-07-29T00:36:45.554Z,70.62
2022-07-29T00:39:57.916Z,71.26
2022-07-29T00:43:20.503Z,71.54
2022-07-29T00:46:43.598Z,70.90
2022-07-29T00:49:54.875Z,70.68
2022-07-29T00:53:23.955Z,70.78
2022-07-29T00:56:53.850Z,70.50
2022-07-29T01:00:09.875Z,71.32
2022-07-29T01:06:54.802Z,70.60
2022-07-29T01:10:08.870Z,70.96
2022-07-29T01:17:01.619Z,71.20
2022-07-29T01:20:13.875Z,74.68
2022-07-29T01:26:54.573Z,74.74
2022-07-29T01:37:22.815Z,74.92
2022-07-29T01:44:10.856Z,73.22
2022-07-29T01:47:23.846Z,73.02
2022-07-29T01:51:04.620Z,75.72
2022-07-29T01:54:27.336Z,74.10
2022-07-29T01:57:39.895Z,73.31
2022-07-29T02:04:30.016Z,73.51
2022-07-29T02:07:46.811Z,73.54
2022-07-29T02:14:40.646Z,74.22
2022-07-29T02:17:52.900Z,74.03
2022-07-29T02:24:41.922Z,73.96
2022-07-29T02:31:23.504Z,76.61
2022-07-29T02:38:23.994Z,76.23
2022-07-29T02:41:49.622Z,75.64
2022-07-29T02:45:04.925Z,75.07
2022-07-29T02:48:46.386Z,74.47
2022-07-29T02:55:39.590Z,73.84
2022-07-29T02:58:48.912Z,73.79
2022-07-29T03:06:00.854Z,74.01
2022-07-29T03:09:18.883Z,73.86
2022-07-29T03:12:59.375Z,73.93
2022-07-29T03:16:23.618Z,74.01
2022-07-29T03:23:45.410Z,74.43
2022-07-29T03:34:04.843Z,75.06
2022-07-29T03:37:20.801Z,75.26
2022-07-29T03:40:34.875Z,76.01
2022-07-29T03:50:25.815Z,76.97
2022-07-29T03:53:44.788Z,77.52
2022-07-29T04:06:44.814Z,77.94
2022-07-29T04:10:00.827Z,77.37
2022-07-29T04:20:27.788Z,75.58
2022-07-29T04:26:58.839Z,75.78
2022-07-29T04:30:16.787Z,75.22
2022-07-29T04:33:50.828Z,75.07
2022-07-29T04:37:22.869Z,75.14
2022-07-29T04:40:49.758Z,74.85
2022-07-29T04:47:52.166Z,75.09
2022-07-29T04:51:05.919Z,75.13
2022-07-29T04:54:22.852Z,74.63
2022-07-29T04:57:36.893Z,74.15
2022-07-29T05:04:11.838Z,74.55
2022-07-29T05:18:21.219Z,74.73
2022-07-29T05:21:34.793Z,73.92
2022-07-29T05:24:42.744Z,73.50
2022-07-29T05:31:16.866Z,72.63
2022-07-29T05:34:27.789Z,72.88
2022-07-29T05:37:54.709Z,72.60
2022-07-29T05:41:13.238Z,72.09
2022-07-29T05:44:40.210Z,71.72
2022-07-29T05:48:07.314Z,71.34
2022-07-29T05:58:58.851Z,70.37
2022-07-29T06:05:42.468Z,69.28
2022-07-29T06:09:00.772Z,69.01
2022-07-29T06:12:40.239Z,68.73
2022-07-29T06:15:57.558Z,68.22
2022-07-29T06:45:25.090Z,66.10
2022-07-29T06:51:54.687Z,65.42
2022-07-29T06:54:32.761Z,64.86
2022-07-29T06:57:00.801Z,64.76
2022-07-29T06:59:35.549Z,64.64
2022-07-29T07:02:05.451Z,64.20
2022-07-29T07:04:34.360Z,63.87
2022-07-29T07:07:02.529Z,63.52
2022-07-29T07:09:40.619Z,63.67
2022-07-29T07:12:10.257Z,63.91
2022-07-29T07:14:38.308Z,63.95
2022-07-29T07:17:08.061Z,63.63
2022-07-29T07:19:38.363Z,63.39
2022-07-29T07:22:06.375Z,63.30
2022-07-29T07:24:34.292Z,63.38
2022-07-29T07:27:02.860Z,63.23
2022-07-29T07:29:30.820Z,62.50
2022-07-29T07:32:01.226Z,62.20
2022-07-29T07:34:31.083Z,62.01
2022-07-29T07:36:59.528Z,61.82
2022-07-29T07:39:27.469Z,61.99
2022-07-29T07:41:55.623Z,61.35
2022-07-29T07:44:23.994Z,60.83
2022-07-29T07:46:52.320Z,60.00
2022-07-29T07:49:25.050Z,59.56
2022-07-29T07:51:57.224Z,59.54
2022-07-29T07:54:25.381Z,58.92
2022-07-29T07:56:54.207Z,59.01
2022-07-29T07:59:22.482Z,58.81
2022-07-29T08:01:55.510Z,58.64
2022-07-29T08:04:29.066Z,58.31
2022-07-29T08:07:05.598Z,57.97
2022-07-29T08:09:36.883Z,58.00
2022-07-29T08:19:22.980Z,56.46
2022-07-29T08:22:02.432Z,56.09
2022-07-29T08:24:49.811Z,56.31
2022-07-29T08:27:42.541Z,55.50
2022-07-29T08:30:40.078Z,55.36
2022-07-29T08:33:51.441Z,54.33
2022-07-29T08:36:30.734Z,53.32
2022-07-29T08:39:04.857Z,52.91
2022-07-29T08:41:33.895Z,53.31
2022-07-29T08:44:03.148Z,53.18
2022-07-29T08:46:41.909Z,53.20
2022-07-29T08:49:55.512Z,53.17
2022-07-29T09:01:14.902Z,51.16
2022-07-29T09:05:00.348Z,50.07
2022-07-29T09:08:50.848Z,49.62
2022-07-29T09:12:28.947Z,48.31
2022-07-29T09:16:11.467Z,47.90
2022-07-29T09:20:57.439Z,48.44
2022-07-29T09:22:42.369Z,47.76
2022-07-29T09:25:39.445Z,48.03
2022-07-29T09:28:20.285Z,47.52
2022-07-29T09:31:01.595Z,47.09
2022-07-29T09:33:41.512Z,46.90
2022-07-29T09:40:28.136Z,46.95
2022-07-29T09:44:22.208Z,46.41
2022-07-29T09:47:12.423Z,46.19
2022-07-29T09:49:59.672Z,45.93
2022-07-29T09:52:31.406Z,44.92
2022-07-29T09:55:08.182Z,44.81
2022-07-29T09:57:40.266Z,44.70
2022-07-29T10:00:19.006Z,44.06
2022-07-29T10:02:48.730Z,43.89
2022-07-29T10:05:23.834Z,43.63
2022-07-29T10:07:57.559Z,43.51
2022-07-29T10:10:31.725Z,42.35
2022-07-29T10:13:08.940Z,42.06
2022-07-29T10:16:01.871Z,42.47
2022-07-29T10:18:49.936Z,42.44
2022-07-29T10:21:36.240Z,41.82
2022-07-29T10:24:27.314Z,41.33
2022-07-29T10:27:02.114Z,41.34
2022-07-29T10:29:32.914Z,41.03
2022-07-29T10:32:22.944Z,40.61
2022-07-29T10:35:19.673Z,39.89
2022-07-29T10:38:07.677Z,40.00
2022-07-29T10:41:20.087Z,40.52
2022-07-29T10:44:17.442Z,40.81
2022-07-29T10:47:49.262Z,40.82
2022-07-29T10:58:56.655Z,41.52
2022-07-29T11:02:42.053Z,41.22
2022-07-29T11:05:59.873Z,42.02
2022-07-29T11:09:00.059Z,41.90
2022-07-29T11:17:26.295Z,41.97
2022-07-29T11:20:08.488Z,42.15
2022-07-29T11:31:00.507Z,42.68
2022-07-29T11:35:00.604Z,42.71
2022-07-29T11:38:27.810Z,42.89
2022-07-29T11:42:13.523Z,43.36
2022-07-29T11:45:45.442Z,42.70
2022-07-29T11:49:15.289Z,42.75
2022-07-29T11:52:22.978Z,42.98
2022-07-29T11:55:10.311Z,42.86
2022-07-29T11:58:03.982Z,42.97
2022-07-29T12:02:18.026Z,43.17
2022-07-29T12:05:36.316Z,43.56
2022-07-29T12:08:55.592Z,44.45
2022-07-29T12:11:37.655Z,45.54
2022-07-29T12:14:08.812Z,45.74
2022-07-29T12:24:49.337Z,49.62
2022-07-29T12:31:42.251Z,51.07
2022-07-29T12:35:27.069Z,52.56
2022-07-29T12:42:18.483Z,53.74
2022-07-29T12:45:40.182Z,53.60
2022-07-29T12:49:11.953Z,53.98
2022-07-29T12:52:42.834Z,54.54
2022-07-29T13:03:25.979Z,57.82
2022-07-29T13:06:04.888Z,59.18
2022-07-29T13:12:44.809Z,61.28
2022-07-29T13:16:05.396Z,62.01
2022-07-29T13:19:19.806Z,62.17
2022-07-29T13:22:26.787Z,62.72
2022-07-29T13:25:35.150Z,62.69
2022-07-29T13:28:32.809Z,63.23
2022-07-29T13:31:43.370Z,63.52
2022-07-29T13:34:30.363Z,63.57
2022-07-29T13:38:53.015Z,64.08
2022-07-29T13:40:58.586Z,63.91
2022-07-29T13:44:20.649Z,63.81
2022-07-29T13:47:49.175Z,63.75
2022-07-29T13:54:28.597Z,65.60
2022-07-29T14:07:46.860Z,68.30
2022-07-29T14:12:01.552Z,68.20
2022-07-29T14:27:43.713Z,70.65
2022-07-29T14:39:42.641Z,71.23
2022-07-29T15:03:04.933Z,72.58
2022-07-29T15:10:04.268Z,72.46
2022-07-29T15:51:49.116Z,70.16
2022-07-29T16:05:51.085Z,63.52
2022-07-29T16:16:54.177Z,62.87
2022-07-29T16:20:26.583Z,63.80
2022-07-29T16:32:30.124Z,62.23
2022-07-29T17:39:12.215Z,62.51
2022-07-29T17:42:13.284Z,62.63
2022-07-29T18:03:12.436Z,64.49
2022-07-29T18:15:23.922Z,67.21
2022-07-29T18:18:47.711Z,68.62
2022-07-29T18:28:59.956Z,67.92
2022-07-29T18:38:01.010Z,67.62
2022-07-29T18:41:11.466Z,67.36
2022-07-29T18:48:14.265Z,67.13
2022-07-29T19:08:42.827Z,69.40
2022-07-29T19:24:52.369Z,69.72
2022-07-29T19:28:12.372Z,69.99
2022-07-29T19:34:46.507Z,74.18
2022-07-29T19:41:35.224Z,74.46
2022-07-29T19:45:32.050Z,73.66
2022-07-29T19:48:50.888Z,74.61
2022-07-29T19:59:08.669Z,73.12
2022-07-29T20:02:24.997Z,74.60
2022-07-29T20:09:42.788Z,73.02
2022-07-29T20:16:51.905Z,72.80
2022-07-29T20:20:31.291Z,72.95
2022-07-29T20:31:13.369Z,73.76
2022-07-29T20:38:01.051Z,74.23
2022-07-29T20:40:30.029Z,74.13
2022-07-29T20:43:06.045Z,73.83
2022-07-29T20:45:51.814Z,73.98
2022-07-29T20:48:41.054Z,74.12
2022-07-29T20:51:43.286Z,73.77
2022-07-29T20:54:15.840Z,74.00
2022-07-29T20:56:44.037Z,73.77
2022-07-29T20:59:11.991Z,74.82
2022-07-29T21:01:39.968Z,74.13
2022-07-29T21:04:07.943Z,74.38
2022-07-29T21:06:36.446Z,74.87
2022-07-29T21:09:04.563Z,75.04
2022-07-29T21:11:44.110Z,77.68
2022-07-29T21:14:31.377Z,75.73
2022-07-29T21:16:59.588Z,75.53
2022-07-29T21:19:27.875Z,74.99
2022-07-29T21:21:55.747Z,74.53
2022-07-29T21:24:23.836Z,74.68
2022-07-29T21:27:18.393Z,74.66
2022-07-29T21:29:39.691Z,74.49
2022-07-29T21:32:07.669Z,74.47
2022-07-29T21:34:35.620Z,74.66
2022-07-29T21:37:04.452Z,75.94
2022-07-29T21:39:35.381Z,77.56
2022-07-29T21:42:03.334Z,76.81
2022-07-29T21:44:31.324Z,75.92
2022-07-29T21:47:01.435Z,75.82
2022-07-29T21:49:29.944Z,75.20
2022-07-29T21:51:57.916Z,75.10
2022-07-29T21:54:26.055Z,74.83
2022-07-29T21:56:56.087Z,74.64
2022-07-29T21:59:25.857Z,74.44
2022-07-29T22:01:53.953Z,74.20
2022-07-29T22:04:22.180Z,73.98
2022-07-29T22:06:50.201Z,74.07
2022-07-29T22:09:18.114Z,74.19
2022-07-29T22:11:47.775Z,74.15
2022-07-29T22:14:17.636Z,73.98
2022-07-29T22:16:46.478Z,73.90
2022-07-29T22:19:15.748Z,74.88
2022-07-29T22:21:44.281Z,75.28
2022-07-29T22:24:12.174Z,75.87
2022-07-29T22:26:40.134Z,75.20
2022-07-29T22:29:08.028Z,76.45
2022-07-29T22:31:36.027Z,76.53
2022-07-29T22:34:04.493Z,75.71
2022-07-29T22:36:32.582Z,75.46
2022-07-29T22:39:00.454Z,75.27
2022-07-29T22:41:28.355Z,75.34
2022-07-29T22:43:56.293Z,75.99
2022-07-29T22:46:24.402Z,76.28
2022-07-29T22:48:52.438Z,77.24
2022-07-29T22:51:20.617Z,76.63
2022-07-29T22:53:48.797Z,76.03
2022-07-29T22:56:17.858Z,75.56
2022-07-29T22:58:45.874Z,75.31
2022-07-29T23:01:14.228Z,75.11
2022-07-29T23:03:50.836Z,74.99
2022-07-29T23:06:19.519Z,74.74
2022-07-29T23:08:47.354Z,74.52
2022-07-29T23:11:16.236Z,74.49
2022-07-29T23:13:44.182Z,74.42
2022-07-29T23:16:12.051Z,74.85
2022-07-29T23:18:39.940Z,75.31
2022-07-29T23:21:08.054Z,76.33
2022-07-29T23:23:36.037Z,75.93
2022-07-29T23:26:03.965Z,75.51
2022-07-29T23:28:31.928Z,75.30
2022-07-29T23:31:00.252Z,74.91
2022-07-29T23:33:28.210Z,74.87
2022-07-29T23:35:56.293Z,75.44
2022-07-29T23:38:24.112Z,75.95
2022-07-29T23:40:51.961Z,75.43
2022-07-29T23:43:19.861Z,75.16
2022-07-29T23:45:48.793Z,74.96
2022-07-29T23:48:16.973Z,74.90
2022-07-29T23:50:45.217Z,75.23
2022-07-29T23:53:13.083Z,74.97
2022-07-29T23:55:40.954Z,74.89
2022-07-29T23:58:08.895Z,74.73
